sensor_id;sensor_type;location;lat;lon;timestamp;pressure;altitude;pressure_sealevel;temperature;humidity
27613;BME280;15036;48.094;-1.690;2023-02-18T00:00:24;102474.94;;;17.49;56.88
27613;BME280;15036;48.094;-1.690;2023-02-18T00:02:49;102475.97;;;17.48;56.38
27613;BME280;15036;48.094;-1.690;2023-02-18T00:05:15;102480.59;;;17.69;56.39
27613;BME280;15036;48.094;-1.690;2023-02-18T00:07:41;102477.25;;;17.80;55.89
27613;BME280;15036;48.094;-1.690;2023-02-18T00:10:10;102483.19;;;16.94;57.90
27613;BME280;15036;48.094;-1.690;2023-02-18T00:12:36;102477.09;;;17.54;56.35
27613;BME280;15036;48.094;-1.690;2023-02-18T00:15:01;102477.38;;;17.65;55.66
27613;BME280;15036;48.094;-1.690;2023-02-18T00:17:28;102476.44;;;17.24;56.57
27613;BME280;15036;48.094;-1.690;2023-02-18T00:19:54;102476.50;;;16.46;58.13
27613;BME280;15036;48.094;-1.690;2023-02-18T00:22:19;102475.84;;;16.59;57.07
27613;BME280;15036;48.094;-1.690;2023-02-18T00:24:44;102473.16;;;16.86;55.73
27613;BME280;15036;48.094;-1.690;2023-02-18T00:27:10;102473.38;;;16.64;55.85
27613;BME280;15036;48.094;-1.690;2023-02-18T00:29:35;102470.06;;;17.23;54.28
27613;BME280;15036;48.094;-1.690;2023-02-18T00:32:00;102470.41;;;16.65;55.88
27613;BME280;15036;48.094;-1.690;2023-02-18T00:34:26;102468.56;;;16.93;54.47
27613;BME280;15036;48.094;-1.690;2023-02-18T00:36:51;102465.53;;;16.88;53.87
27613;BME280;15036;48.094;-1.690;2023-02-18T00:39:16;102461.16;;;17.00;53.92
27613;BME280;15036;48.094;-1.690;2023-02-18T00:41:42;102456.47;;;17.22;53.05
27613;BME280;15036;48.094;-1.690;2023-02-18T00:44:09;102462.84;;;16.95;52.96
27613;BME280;15036;48.094;-1.690;2023-02-18T00:46:35;102459.81;;;16.69;53.32
27613;BME280;15036;48.094;-1.690;2023-02-18T00:49:00;102456.63;;;16.65;53.85
27613;BME280;15036;48.094;-1.690;2023-02-18T00:51:26;102459.63;;;16.91;53.01
27613;BME280;15036;48.094;-1.690;2023-02-18T00:53:52;102448.94;;;16.61;53.77
27613;BME280;15036;48.094;-1.690;2023-02-18T00:56:18;102453.75;;;17.28;52.07
27613;BME280;15036;48.094;-1.690;2023-02-18T00:58:43;102435.47;;;17.55;51.27
27613;BME280;15036;48.094;-1.690;2023-02-18T01:01:09;102444.88;;;17.61;51.47
27613;BME280;15036;48.094;-1.690;2023-02-18T01:03:36;102443.56;;;17.57;51.30
27613;BME280;15036;48.094;-1.690;2023-02-18T01:06:03;102440.59;;;17.58;51.27
27613;BME280;15036;48.094;-1.690;2023-02-18T01:08:29;102444.28;;;17.44;51.55
27613;BME280;15036;48.094;-1.690;2023-02-18T01:10:56;102440.53;;;17.52;51.16
27613;BME280;15036;48.094;-1.690;2023-02-18T01:13:21;102448.44;;;17.27;51.59
27613;BME280;15036;48.094;-1.690;2023-02-18T01:15:47;102452.28;;;17.32;51.47
27613;BME280;15036;48.094;-1.690;2023-02-18T01:18:13;102446.94;;;17.52;51.16
27613;BME280;15036;48.094;-1.690;2023-02-18T01:20:40;102440.81;;;17.57;51.02
27613;BME280;15036;48.094;-1.690;2023-02-18T01:23:06;102443.03;;;17.47;51.07
27613;BME280;15036;48.094;-1.690;2023-02-18T01:25:32;102444.22;;;17.59;50.79
27613;BME280;15036;48.094;-1.690;2023-02-18T01:27:57;102446.31;;;17.57;51.12
27613;BME280;15036;48.094;-1.690;2023-02-18T01:30:23;102446.19;;;17.44;51.14
27613;BME280;15036;48.094;-1.690;2023-02-18T01:32:48;102450.09;;;17.49;51.10
27613;BME280;15036;48.094;-1.690;2023-02-18T01:35:16;102438.00;;;17.50;50.96
27613;BME280;15036;48.094;-1.690;2023-02-18T01:37:42;102443.97;;;17.54;50.96
27613;BME280;15036;48.094;-1.690;2023-02-18T01:40:10;102441.25;;;17.60;50.95
27613;BME280;15036;48.094;-1.690;2023-02-18T01:42:36;102445.03;;;17.53;51.20
27613;BME280;15036;48.094;-1.690;2023-02-18T01:48:22;102446.34;;;17.63;50.65
27613;BME280;15036;48.094;-1.690;2023-02-18T01:50:53;102446.28;;;17.50;50.89
27613;BME280;15036;48.094;-1.690;2023-02-18T01:53:22;102453.00;;;17.69;50.88
27613;BME280;15036;48.094;-1.690;2023-02-18T01:55:50;102452.84;;;17.21;51.47
27613;BME280;15036;48.094;-1.690;2023-02-18T01:58:16;102450.34;;;17.26;51.87
27613;BME280;15036;48.094;-1.690;2023-02-18T02:00:42;102444.88;;;17.05;52.10
27613;BME280;15036;48.094;-1.690;2023-02-18T02:03:07;102437.78;;;17.24;51.92
27613;BME280;15036;48.094;-1.690;2023-02-18T02:05:33;102443.16;;;16.77;52.92
27613;BME280;15036;48.094;-1.690;2023-02-18T02:08:00;102444.47;;;15.88;54.70
27613;BME280;15036;48.094;-1.690;2023-02-18T02:10:35;102445.34;;;16.45;52.88
27613;BME280;15036;48.094;-1.690;2023-02-18T02:13:25;102434.75;;;16.64;52.17
27613;BME280;15036;48.094;-1.690;2023-02-18T02:16:06;102441.34;;;16.90;51.90
27613;BME280;15036;48.094;-1.690;2023-02-18T02:18:49;102433.09;;;16.69;52.14
27613;BME280;15036;48.094;-1.690;2023-02-18T02:27:20;102432.44;;;16.67;51.77
27613;BME280;15036;48.094;-1.690;2023-02-18T02:35:40;102422.06;;;16.12;52.73
27613;BME280;15036;48.094;-1.690;2023-02-18T02:38:30;102424.41;;;16.72;51.54
27613;BME280;15036;48.094;-1.690;2023-02-18T02:44:19;102416.28;;;15.86;53.04
27613;BME280;15036;48.094;-1.690;2023-02-18T02:46:47;102421.16;;;16.62;51.32
27613;BME280;15036;48.094;-1.690;2023-02-18T02:49:36;102410.38;;;16.10;52.05
27613;BME280;15036;48.094;-1.690;2023-02-18T02:54:43;102409.56;;;16.31;51.53
27613;BME280;15036;48.094;-1.690;2023-02-18T03:00:03;102392.00;;;16.32;51.59
27613;BME280;15036;48.094;-1.690;2023-02-18T03:02:57;102401.38;;;16.37;51.40
27613;BME280;15036;48.094;-1.690;2023-02-18T03:11:09;102379.84;;;16.69;50.68
27613;BME280;15036;48.094;-1.690;2023-02-18T03:18:53;102388.03;;;16.83;50.40
27613;BME280;15036;48.094;-1.690;2023-02-18T03:21:29;102386.72;;;17.07;50.19
27613;BME280;15036;48.094;-1.690;2023-02-18T03:24:00;102382.38;;;16.91;50.30
27613;BME280;15036;48.094;-1.690;2023-02-18T03:26:27;102380.13;;;17.08;50.02
27613;BME280;15036;48.094;-1.690;2023-02-18T03:28:57;102377.78;;;17.05;50.26
27613;BME280;15036;48.094;-1.690;2023-02-18T03:31:26;102379.91;;;17.03;50.25
27613;BME280;15036;48.094;-1.690;2023-02-18T03:34:01;102387.53;;;17.01;50.00
27613;BME280;15036;48.094;-1.690;2023-02-18T03:36:28;102378.59;;;16.50;51.55
27613;BME280;15036;48.094;-1.690;2023-02-18T03:38:59;102383.56;;;16.82;50.91
27613;BME280;15036;48.094;-1.690;2023-02-18T03:41:25;102375.84;;;16.71;51.01
27613;BME280;15036;48.094;-1.690;2023-02-18T03:43:58;102371.47;;;16.83;50.78
27613;BME280;15036;48.094;-1.690;2023-02-18T03:46:26;102370.31;;;16.71;51.52
27613;BME280;15036;48.094;-1.690;2023-02-18T03:48:51;102360.38;;;16.49;51.99
27613;BME280;15036;48.094;-1.690;2023-02-18T03:51:17;102362.50;;;16.75;51.23
27613;BME280;15036;48.094;-1.690;2023-02-18T03:53:44;102370.56;;;16.76;51.36
27613;BME280;15036;48.094;-1.690;2023-02-18T03:56:09;102366.50;;;16.72;51.47
27613;BME280;15036;48.094;-1.690;2023-02-18T03:58:34;102366.63;;;16.01;53.26
27613;BME280;15036;48.094;-1.690;2023-02-18T04:01:00;102367.66;;;16.84;51.51
27613;BME280;15036;48.094;-1.690;2023-02-18T04:03:26;102364.22;;;16.55;52.36
27613;BME280;15036;48.094;-1.690;2023-02-18T04:05:51;102370.47;;;16.91;51.51
27613;BME280;15036;48.094;-1.690;2023-02-18T04:08:17;102370.19;;;16.58;51.91
27613;BME280;15036;48.094;-1.690;2023-02-18T04:10:42;102369.09;;;16.80;51.18
27613;BME280;15036;48.094;-1.690;2023-02-18T04:13:07;102369.41;;;16.92;51.21
27613;BME280;15036;48.094;-1.690;2023-02-18T04:15:33;102369.16;;;16.87;51.32
27613;BME280;15036;48.094;-1.690;2023-02-18T04:17:59;102371.47;;;16.56;51.94
27613;BME280;15036;48.094;-1.690;2023-02-18T04:20:24;102378.59;;;16.50;52.41
27613;BME280;15036;48.094;-1.690;2023-02-18T04:22:50;102374.69;;;16.59;52.09
27613;BME280;15036;48.094;-1.690;2023-02-18T04:25:15;102365.25;;;16.75;51.94
27613;BME280;15036;48.094;-1.690;2023-02-18T04:27:40;102374.06;;;16.42;52.88
27613;BME280;15036;48.094;-1.690;2023-02-18T04:30:06;102372.63;;;16.68;52.44
27613;BME280;15036;48.094;-1.690;2023-02-18T04:32:32;102369.47;;;16.71;52.13
27613;BME280;15036;48.094;-1.690;2023-02-18T04:34:57;102374.25;;;16.41;52.57
27613;BME280;15036;48.094;-1.690;2023-02-18T04:37:23;102365.09;;;16.83;52.21
27613;BME280;15036;48.094;-1.690;2023-02-18T04:39:48;102367.66;;;16.84;52.06
27613;BME280;15036;48.094;-1.690;2023-02-18T04:42:13;102359.72;;;17.02;51.84
27613;BME280;15036;48.094;-1.690;2023-02-18T04:44:39;102373.03;;;16.92;52.32
27613;BME280;15036;48.094;-1.690;2023-02-18T04:47:05;102369.63;;;16.90;52.41
27613;BME280;15036;48.094;-1.690;2023-02-18T04:49:31;102368.81;;;16.96;52.55
27613;BME280;15036;48.094;-1.690;2023-02-18T04:51:56;102373.22;;;16.91;52.94
27613;BME280;15036;48.094;-1.690;2023-02-18T04:54:22;102370.69;;;16.89;52.99
27613;BME280;15036;48.094;-1.690;2023-02-18T04:56:47;102360.94;;;16.93;53.11
27613;BME280;15036;48.094;-1.690;2023-02-18T04:59:12;102363.44;;;16.88;52.95
27613;BME280;15036;48.094;-1.690;2023-02-18T05:01:38;102368.16;;;16.94;53.38
27613;BME280;15036;48.094;-1.690;2023-02-18T05:04:03;102365.56;;;16.86;53.52
27613;BME280;15036;48.094;-1.690;2023-02-18T05:06:29;102368.75;;;16.90;53.75
27613;BME280;15036;48.094;-1.690;2023-02-18T05:08:54;102368.38;;;16.93;53.53
27613;BME280;15036;48.094;-1.690;2023-02-18T05:11:19;102367.13;;;16.95;53.74
27613;BME280;15036;48.094;-1.690;2023-02-18T05:13:45;102371.78;;;16.95;53.58
27613;BME280;15036;48.094;-1.690;2023-02-18T05:16:10;102371.66;;;16.82;54.01
27613;BME280;15036;48.094;-1.690;2023-02-18T05:18:35;102369.88;;;16.95;53.75
27613;BME280;15036;48.094;-1.690;2023-02-18T05:21:01;102375.50;;;16.81;54.34
27613;BME280;15036;48.094;-1.690;2023-02-18T05:23:26;102370.69;;;16.89;53.96
27613;BME280;15036;48.094;-1.690;2023-02-18T05:25:51;102368.75;;;16.90;54.28
27613;BME280;15036;48.094;-1.690;2023-02-18T05:28:17;102368.56;;;16.91;54.17
27613;BME280;15036;48.094;-1.690;2023-02-18T05:30:42;102370.63;;;16.83;54.61
27613;BME280;15036;48.094;-1.690;2023-02-18T05:33:08;102369.91;;;16.74;54.82
27613;BME280;15036;48.094;-1.690;2023-02-18T05:35:33;102373.16;;;16.57;54.80
27613;BME280;15036;48.094;-1.690;2023-02-18T05:37:58;102370.06;;;16.66;54.95
27613;BME280;15036;48.094;-1.690;2023-02-18T05:40:24;102367.97;;;16.47;55.29
27613;BME280;15036;48.094;-1.690;2023-02-18T05:42:49;102371.13;;;15.66;57.49
27613;BME280;15036;48.094;-1.690;2023-02-18T05:45:15;102374.09;;;15.86;57.54
27613;BME280;15036;48.094;-1.690;2023-02-18T05:47:40;102372.63;;;16.04;56.94
27613;BME280;15036;48.094;-1.690;2023-02-18T05:50:06;102374.41;;;16.12;56.95
27613;BME280;15036;48.094;-1.690;2023-02-18T05:52:31;102376.25;;;16.26;56.18
27613;BME280;15036;48.094;-1.690;2023-02-18T05:54:57;102373.03;;;16.43;56.00
27613;BME280;15036;48.094;-1.690;2023-02-18T05:57:22;102374.78;;;16.09;57.06
27613;BME280;15036;48.094;-1.690;2023-02-18T05:59:48;102372.44;;;16.27;56.39
27613;BME280;15036;48.094;-1.690;2023-02-18T06:02:13;102371.34;;;16.64;55.81
27613;BME280;15036;48.094;-1.690;2023-02-18T06:04:38;102369.47;;;16.28;56.29
27613;BME280;15036;48.094;-1.690;2023-02-18T06:07:04;102374.81;;;16.51;56.07
27613;BME280;15036;48.094;-1.690;2023-02-18T06:09:30;102378.47;;;16.58;55.89
27613;BME280;15036;48.094;-1.690;2023-02-18T06:11:56;102372.19;;;16.22;56.87
27613;BME280;15036;48.094;-1.690;2023-02-18T06:14:21;102373.59;;;16.39;56.31
27613;BME280;15036;48.094;-1.690;2023-02-18T06:16:46;102372.72;;;16.53;56.04
27613;BME280;15036;48.094;-1.690;2023-02-18T06:19:12;102364.69;;;16.58;55.97
27613;BME280;15036;48.094;-1.690;2023-02-18T06:21:37;102363.78;;;16.30;56.45
27613;BME280;15036;48.094;-1.690;2023-02-18T06:24:03;102367.44;;;16.37;56.20
27613;BME280;15036;48.094;-1.690;2023-02-18T06:26:28;102362.31;;;16.13;56.72
27613;BME280;15036;48.094;-1.690;2023-02-18T06:28:53;102364.38;;;16.25;56.58
27613;BME280;15036;48.094;-1.690;2023-02-18T06:31:19;102364.03;;;16.35;56.35
27613;BME280;15036;48.094;-1.690;2023-02-18T06:33:44;102373.16;;;16.57;55.84
27613;BME280;15036;48.094;-1.690;2023-02-18T06:36:10;102371.41;;;16.28;56.65
27613;BME280;15036;48.094;-1.690;2023-02-18T06:38:38;102371.56;;;16.05;57.01
27613;BME280;15036;48.094;-1.690;2023-02-18T06:41:04;102364.03;;;16.35;56.09
27613;BME280;15036;48.094;-1.690;2023-02-18T06:43:30;102365.03;;;16.27;56.42
27613;BME280;15036;48.094;-1.690;2023-02-18T06:45:56;102362.97;;;15.94;56.84
27613;BME280;15036;48.094;-1.690;2023-02-18T06:48:22;102365.16;;;16.19;56.19
27613;BME280;15036;48.094;-1.690;2023-02-18T06:50:47;102362.38;;;16.19;56.25
27613;BME280;15036;48.094;-1.690;2023-02-18T06:53:13;102367.56;;;16.08;56.46
27613;BME280;15036;48.094;-1.690;2023-02-18T06:55:38;102353.59;;;16.30;55.61
27613;BME280;15036;48.094;-1.690;2023-02-18T06:58:04;102358.72;;;16.33;55.89
27613;BME280;15036;48.094;-1.690;2023-02-18T07:00:29;102357.91;;;16.18;55.97
27613;BME280;15036;48.094;-1.690;2023-02-18T07:02:55;102355.03;;;16.05;55.59
27613;BME280;15036;48.094;-1.690;2023-02-18T07:05:20;102351.09;;;16.14;55.08
27613;BME280;15036;48.094;-1.690;2023-02-18T07:07:46;102343.75;;;16.00;55.32
27613;BME280;15036;48.094;-1.690;2023-02-18T07:10:11;102352.31;;;15.91;55.62
27613;BME280;15036;48.094;-1.690;2023-02-18T07:12:36;102351.91;;;16.08;55.04
27613;BME280;15036;48.094;-1.690;2023-02-18T07:15:02;102350.75;;;16.45;54.18
27613;BME280;15036;48.094;-1.690;2023-02-18T07:17:27;102351.56;;;16.18;54.29
27613;BME280;15036;48.094;-1.690;2023-02-18T07:19:53;102355.38;;;16.17;54.59
27613;BME280;15036;48.094;-1.690;2023-02-18T07:22:20;102359.63;;;16.19;54.23
27613;BME280;15036;48.094;-1.690;2023-02-18T07:24:45;102364.53;;;16.45;53.73
27613;BME280;15036;48.094;-1.690;2023-02-18T07:27:11;102372.09;;;16.36;53.98
27613;BME280;15036;48.094;-1.690;2023-02-18T07:29:36;102373.59;;;16.39;54.17
27613;BME280;15036;48.094;-1.690;2023-02-18T07:32:01;102379.78;;;16.41;54.49
27613;BME280;15036;48.094;-1.690;2023-02-18T07:34:27;102381.44;;;16.35;54.78
27613;BME280;15036;48.094;-1.690;2023-02-18T07:36:53;102387.25;;;16.47;54.56
27613;BME280;15036;48.094;-1.690;2023-02-18T07:39:18;102393.47;;;16.49;54.74
27613;BME280;15036;48.094;-1.690;2023-02-18T07:41:46;102395.53;;;16.47;55.15
27613;BME280;15036;48.094;-1.690;2023-02-18T07:44:12;102399.22;;;16.54;55.14
27613;BME280;15036;48.094;-1.690;2023-02-18T07:46:42;102401.53;;;16.51;55.36
27613;BME280;15036;48.094;-1.690;2023-02-18T07:49:07;102405.81;;;16.53;55.28
27613;BME280;15036;48.094;-1.690;2023-02-18T07:51:33;102413.50;;;16.58;55.22
27613;BME280;15036;48.094;-1.690;2023-02-18T07:53:58;102411.97;;;16.55;55.74
27613;BME280;15036;48.094;-1.690;2023-02-18T07:56:24;102419.69;;;16.45;55.69
27613;BME280;15036;48.094;-1.690;2023-02-18T07:58:49;102416.84;;;16.53;55.58
27613;BME280;15036;48.094;-1.690;2023-02-18T08:01:15;102420.59;;;16.31;56.16
27613;BME280;15036;48.094;-1.690;2023-02-18T08:03:41;102412.69;;;16.07;55.81
27613;BME280;15036;48.094;-1.690;2023-02-18T08:06:07;102420.38;;;15.61;56.53
27613;BME280;15036;48.094;-1.690;2023-02-18T08:08:33;102418.44;;;15.91;55.97
27613;BME280;15036;48.094;-1.690;2023-02-18T08:11:01;102423.41;;;16.16;55.18
27613;BME280;15036;48.094;-1.690;2023-02-18T08:13:28;102424.38;;;16.09;55.83
27613;BME280;15036;48.094;-1.690;2023-02-18T08:15:55;102426.53;;;16.28;54.78
27613;BME280;15036;48.094;-1.690;2023-02-18T08:18:22;102426.56;;;16.13;55.04
27613;BME280;15036;48.094;-1.690;2023-02-18T08:20:48;102429.66;;;16.25;54.85
27613;BME280;15036;48.094;-1.690;2023-02-18T08:23:14;102437.53;;;16.64;54.10
27613;BME280;15036;48.094;-1.690;2023-02-18T08:25:47;102432.97;;;16.56;54.42
27613;BME280;15036;48.094;-1.690;2023-02-18T08:28:13;102431.13;;;16.63;54.50
27613;BME280;15036;48.094;-1.690;2023-02-18T08:30:38;102428.31;;;16.57;54.15
27613;BME280;15036;48.094;-1.690;2023-02-18T08:33:08;102433.38;;;16.53;54.68
27613;BME280;15036;48.094;-1.690;2023-02-18T08:35:33;102427.34;;;16.92;53.85
27613;BME280;15036;48.094;-1.690;2023-02-18T08:37:58;102432.03;;;16.91;54.03
27613;BME280;15036;48.094;-1.690;2023-02-18T08:40:24;102437.66;;;17.04;53.49
27613;BME280;15036;48.094;-1.690;2023-02-18T08:42:49;102432.97;;;16.77;54.21
27613;BME280;15036;48.094;-1.690;2023-02-18T08:45:14;102430.44;;;17.03;53.64
27613;BME280;15036;48.094;-1.690;2023-02-18T08:47:40;102431.69;;;17.01;53.69
27613;BME280;15036;48.094;-1.690;2023-02-18T08:50:05;102432.22;;;17.17;53.34
27613;BME280;15036;48.094;-1.690;2023-02-18T08:52:31;102434.75;;;17.12;53.38
27613;BME280;15036;48.094;-1.690;2023-02-18T08:54:57;102428.25;;;16.99;53.63
27613;BME280;15036;48.094;-1.690;2023-02-18T08:57:22;102439.06;;;16.73;53.58
27613;BME280;15036;48.094;-1.690;2023-02-18T08:59:48;102442.06;;;16.78;53.81
27613;BME280;15036;48.094;-1.690;2023-02-18T09:02:14;102440.56;;;16.96;53.12
27613;BME280;15036;48.094;-1.690;2023-02-18T09:04:39;102434.09;;;17.10;52.85
27613;BME280;15036;48.094;-1.690;2023-02-18T09:07:05;102436.44;;;17.13;52.64
27613;BME280;15036;48.094;-1.690;2023-02-18T09:09:30;102434.00;;;16.76;52.74
27613;BME280;15036;48.094;-1.690;2023-02-18T09:11:56;102437.13;;;16.31;53.89
27613;BME280;15036;48.094;-1.690;2023-02-18T09:14:22;102434.28;;;16.60;53.36
27613;BME280;15036;48.094;-1.690;2023-02-18T09:16:47;102437.63;;;16.77;53.04
27613;BME280;15036;48.094;-1.690;2023-02-18T09:19:14;102433.34;;;16.95;52.58
27613;BME280;15036;48.094;-1.690;2023-02-18T09:21:40;102441.75;;;16.45;53.52
27613;BME280;15036;48.094;-1.690;2023-02-18T09:24:05;102429.44;;;17.17;52.53
27613;BME280;15036;48.094;-1.690;2023-02-18T09:26:30;102436.31;;;16.73;53.04
27613;BME280;15036;48.094;-1.690;2023-02-18T09:28:56;102437.06;;;17.09;52.46
27613;BME280;15036;48.094;-1.690;2023-02-18T09:31:23;102440.97;;;16.93;52.75
27613;BME280;15036;48.094;-1.690;2023-02-18T09:33:56;102434.28;;;16.60;53.43
27613;BME280;15036;48.094;-1.690;2023-02-18T09:36:21;102432.69;;;16.93;52.89
27613;BME280;15036;48.094;-1.690;2023-02-18T09:38:47;102434.03;;;17.04;52.76
27613;BME280;15036;48.094;-1.690;2023-02-18T09:43:47;102434.06;;;16.83;52.80
27613;BME280;15036;48.094;-1.690;2023-02-18T09:46:29;102430.59;;;17.29;51.96
27613;BME280;15036;48.094;-1.690;2023-02-18T09:48:55;102430.75;;;17.21;52.27
27613;BME280;15036;48.094;-1.690;2023-02-18T09:51:20;102431.50;;;17.37;51.94
27613;BME280;15036;48.094;-1.690;2023-02-18T09:53:46;102426.66;;;17.11;52.57
27613;BME280;15036;48.094;-1.690;2023-02-18T09:56:20;102428.50;;;17.31;52.23
27613;BME280;15036;48.094;-1.690;2023-02-18T09:58:47;102425.66;;;17.18;52.69
27613;BME280;15036;48.094;-1.690;2023-02-18T10:01:37;102431.53;;;17.43;51.93
27613;BME280;15036;48.094;-1.690;2023-02-18T10:04:35;102429.94;;;17.21;52.23
27613;BME280;15036;48.094;-1.690;2023-02-18T10:07:04;102438.81;;;17.16;52.21
27613;BME280;15036;48.094;-1.690;2023-02-18T10:09:36;102433.56;;;17.56;51.21
27613;BME280;15036;48.094;-1.690;2023-02-18T10:12:10;102426.34;;;17.61;51.04
27613;BME280;15036;48.094;-1.690;2023-02-18T10:14:37;102435.94;;;17.59;51.15
27613;BME280;15036;48.094;-1.690;2023-02-18T10:17:03;102435.31;;;17.35;51.66
27613;BME280;15036;48.094;-1.690;2023-02-18T10:19:35;102446.34;;;17.01;52.33
27613;BME280;15036;48.094;-1.690;2023-02-18T10:22:10;102440.91;;;17.14;51.81
27613;BME280;15036;48.094;-1.690;2023-02-18T10:24:39;102447.91;;;17.45;51.36
27613;BME280;15036;48.094;-1.690;2023-02-18T10:27:17;102440.31;;;17.19;51.16
27613;BME280;15036;48.094;-1.690;2023-02-18T10:29:43;102445.09;;;17.38;50.98
27613;BME280;15036;48.094;-1.690;2023-02-18T10:32:30;102450.78;;;17.58;50.64
27613;BME280;15036;48.094;-1.690;2023-02-18T10:42:36;102447.09;;;17.85;49.29
27613;BME280;15036;48.094;-1.690;2023-02-18T10:50:40;102450.19;;;16.79;51.23
27613;BME280;15036;48.094;-1.690;2023-02-18T10:53:28;102433.47;;;17.43;49.71
27613;BME280;15036;48.094;-1.690;2023-02-18T10:55:55;102434.59;;;17.20;49.64
27613;BME280;15036;48.094;-1.690;2023-02-18T11:00:50;102423.97;;;17.24;49.92
27613;BME280;15036;48.094;-1.690;2023-02-18T11:03:24;102421.78;;;17.41;50.20
27613;BME280;15036;48.094;-1.690;2023-02-18T11:05:52;102419.22;;;17.46;50.36
27613;BME280;15036;48.094;-1.690;2023-02-18T11:08:25;102420.06;;;17.12;50.58
27613;BME280;15036;48.094;-1.690;2023-02-18T11:10:52;102422.78;;;17.61;49.89
27613;BME280;15036;48.094;-1.690;2023-02-18T11:13:25;102417.94;;;17.42;49.69
27613;BME280;15036;48.094;-1.690;2023-02-18T11:16:04;102421.25;;;16.96;50.51
27613;BME280;15036;48.094;-1.690;2023-02-18T11:21:02;102426.91;;;17.84;48.33
27613;BME280;15036;48.094;-1.690;2023-02-18T11:23:28;102426.50;;;17.87;48.62
27613;BME280;15036;48.094;-1.690;2023-02-18T11:25:56;102432.88;;;17.88;48.89
27613;BME280;15036;48.094;-1.690;2023-02-18T11:28:57;102429.56;;;18.12;48.33
27613;BME280;15036;48.094;-1.690;2023-02-18T11:31:25;102434.81;;;17.94;48.77
27613;BME280;15036;48.094;-1.690;2023-02-18T11:33:54;102426.44;;;17.81;48.36
27613;BME280;15036;48.094;-1.690;2023-02-18T11:36:32;102428.75;;;17.71;48.79
27613;BME280;15036;48.094;-1.690;2023-02-18T11:39:22;102432.22;;;17.86;48.48
27613;BME280;15036;48.094;-1.690;2023-02-18T11:41:57;102429.78;;;17.63;48.65
27613;BME280;15036;48.094;-1.690;2023-02-18T11:44:32;102424.63;;;17.94;47.96
27613;BME280;15036;48.094;-1.690;2023-02-18T11:47:05;102423.22;;;18.18;47.32
27613;BME280;15036;48.094;-1.690;2023-02-18T11:49:32;102420.00;;;18.21;46.74
27613;BME280;15036;48.094;-1.690;2023-02-18T11:52:04;102423.34;;;17.97;47.39
27613;BME280;15036;48.094;-1.690;2023-02-18T11:54:38;102419.91;;;17.88;47.39
27613;BME280;15036;48.094;-1.690;2023-02-18T11:57:06;102420.56;;;17.22;48.37
27613;BME280;15036;48.094;-1.690;2023-02-18T11:59:36;102417.06;;;17.69;47.57
27613;BME280;15036;48.094;-1.690;2023-02-18T12:04:47;102416.59;;;18.06;45.99
27613;BME280;15036;48.094;-1.690;2023-02-18T12:07:19;102418.88;;;17.96;46.27
27613;BME280;15036;48.094;-1.690;2023-02-18T12:09:49;102406.78;;;17.22;47.56
27613;BME280;15036;48.094;-1.690;2023-02-18T12:12:26;102409.69;;;17.89;46.78
27613;BME280;15036;48.094;-1.690;2023-02-18T12:14:56;102410.41;;;18.04;46.70
27613;BME280;15036;48.094;-1.690;2023-02-18T12:25:46;102391.63;;;17.86;47.00
27613;BME280;15036;48.094;-1.690;2023-02-18T12:28:17;102393.41;;;17.25;48.56
27613;BME280;15036;48.094;-1.690;2023-02-18T12:41:39;102379.13;;;17.50;47.70
27613;BME280;15036;48.094;-1.690;2023-02-18T12:44:33;102372.09;;;17.88;46.60
27613;BME280;15036;48.094;-1.690;2023-02-18T12:53:10;102368.56;;;18.33;45.97
27613;BME280;15036;48.094;-1.690;2023-02-18T13:04:13;102342.94;;;17.85;46.87
27613;BME280;15036;48.094;-1.690;2023-02-18T13:09:24;102339.38;;;18.11;46.84
27613;BME280;15036;48.094;-1.690;2023-02-18T13:11:56;102339.59;;;17.43;47.93
27613;BME280;15036;48.094;-1.690;2023-02-18T13:14:29;102345.56;;;18.13;47.10
27613;BME280;15036;48.094;-1.690;2023-02-18T13:16:58;102340.06;;;18.26;46.27
27613;BME280;15036;48.094;-1.690;2023-02-18T13:19:32;102334.91;;;17.97;47.03
27613;BME280;15036;48.094;-1.690;2023-02-18T13:22:05;102332.00;;;18.44;45.80
27613;BME280;15036;48.094;-1.690;2023-02-18T13:24:36;102330.28;;;18.76;45.32
27613;BME280;15036;48.094;-1.690;2023-02-18T13:27:27;102323.06;;;18.75;45.27
27613;BME280;15036;48.094;-1.690;2023-02-18T13:30:02;102325.63;;;18.50;45.76
27613;BME280;15036;48.094;-1.690;2023-02-18T13:33:16;102319.63;;;18.27;45.98
27613;BME280;15036;48.094;-1.690;2023-02-18T13:41:18;102314.50;;;17.98;46.90
27613;BME280;15036;48.094;-1.690;2023-02-18T13:43:43;102320.59;;;17.74;47.61
27613;BME280;15036;48.094;-1.690;2023-02-18T13:46:13;102310.03;;;17.97;46.86
27613;BME280;15036;48.094;-1.690;2023-02-18T13:51:11;102303.00;;;17.88;47.00
27613;BME280;15036;48.094;-1.690;2023-02-18T13:53:39;102296.25;;;18.23;46.28
27613;BME280;15036;48.094;-1.690;2023-02-18T13:56:09;102301.28;;;17.80;46.81
27613;BME280;15036;48.094;-1.690;2023-02-18T13:58:49;102303.44;;;17.98;46.64
27613;BME280;15036;48.094;-1.690;2023-02-18T14:01:37;102290.88;;;17.82;47.35
27613;BME280;15036;48.094;-1.690;2023-02-18T14:09:51;102286.66;;;18.12;46.49
27613;BME280;15036;48.094;-1.690;2023-02-18T14:14:47;102275.13;;;17.83;47.24
27613;BME280;15036;48.094;-1.690;2023-02-18T14:17:28;102269.22;;;18.18;46.38
27613;BME280;15036;48.094;-1.690;2023-02-18T14:22:43;102266.47;;;18.25;46.37
27613;BME280;15036;48.094;-1.690;2023-02-18T14:27:36;102267.31;;;17.86;47.19
27613;BME280;15036;48.094;-1.690;2023-02-18T14:30:04;102256.28;;;18.26;46.65
27613;BME280;15036;48.094;-1.690;2023-02-18T14:32:31;102259.03;;;18.19;46.57
27613;BME280;15036;48.094;-1.690;2023-02-18T14:48:43;102244.78;;;18.09;46.50
27613;BME280;15036;48.094;-1.690;2023-02-18T14:51:19;102243.91;;;18.35;45.98
27613;BME280;15036;48.094;-1.690;2023-02-18T14:53:46;102244.34;;;17.99;46.62
27613;BME280;15036;48.094;-1.690;2023-02-18T14:56:15;102236.69;;;18.53;46.00